Petrosani, Romania
Current Conditions -  °F | °C
As of 7:00 AM on Saturday 25 Oct 2014 (Local Time) from LRSB Reporting Station
Overcast Overcast  
Wind Chill: 32°   Ceiling: 1700
Heat Index: 37°   Visibility: 6mi
Dew Point: 28°   Wind: 7mph
Humidity: 70%   Direction: 110°ESE
Pressure: 30.21"   Gusts: NA
Location:  45.41°N, 23.38°E
Report Text: LRSB 250400Z 11006KT 9999 OVC017 03/M02 Q1023
Loading
Personal Weather Stations






























Interactive Weather Map
Tropical Storm Tracking
New forecast layout! Learn more

10-Day Weather Forecast

Advertisements
Track Severe Weather on mobile